Time;durP1;ratioP1;P1;durP2;ratioP2;P2;SDS_P1;SDS_P2;PMS_P1;PMS_P2;Temp;Humidity;BMP_temperature;BMP_pressure;BME280_temperature;BME280_humidity;BME280_pressure;Samples;Min_cycle;Max_cycle;Signal;HPM_P1;HPM_P2
2021/07/05 00:01:15;;;;;;;8.55;7.75;;;;;;;;;;5055022;28;20344;-72
2021/07/05 00:03:41;;;;;;;9.00;8.00;;;;;;;;;;5056083;28;20029;-72
2021/07/05 00:06:07;;;;;;;9.27;8.45;;;;;;;;;;5055244;28;20032;-72
2021/07/05 00:08:33;;;;;;;9.63;8.82;;;;;;;;;;5055352;28;20024;-72
2021/07/05 00:10:59;;;;;;;8.73;7.13;;;;;;;;;;5055416;28;20032;-71
2021/07/05 00:13:25;;;;;;;9.13;8.32;;;;;;;;;;5054949;28;20025;-72
2021/07/05 00:15:51;;;;;;;7.88;7.10;;;;;;;;;;5054696;28;20482;-72
2021/07/05 00:18:17;;;;;;;10.60;8.15;;;;;;;;;;5055013;28;20045;-71
2021/07/05 00:20:44;;;;;;;9.18;8.38;;;;;;;;;;5055062;28;20107;-71
2021/07/05 00:23:10;;;;;;;7.75;7.05;;;;;;;;;;5055036;28;20048;-73
2021/07/05 00:25:36;;;;;;;9.32;7.97;;;;;;;;;;5055234;28;20108;-71
2021/07/05 00:28:02;;;;;;;8.43;7.68;;;;;;;;;;5054681;28;20033;-71
2021/07/05 00:30:28;;;;;;;10.68;8.23;;;;;;;;;;5054640;28;20087;-72
2021/07/05 00:32:54;;;;;;;11.23;8.13;;;;;;;;;;5055061;28;20021;-72
2021/07/05 00:35:21;;;;;;;8.40;7.70;;;;;;;;;;5054508;28;20044;-72
2021/07/05 00:37:47;;;;;;;10.25;7.85;;;;;;;;;;5055058;28;20041;-71
2021/07/05 00:40:13;;;;;;;8.23;7.53;;;;;;;;;;5054608;28;20112;-72
2021/07/05 00:42:39;;;;;;;7.53;6.93;;;;;;;;;;5054385;28;20021;-72
2021/07/05 00:45:06;;;;;;;8.32;7.63;;;;;;;;;;5053563;28;20052;-74
2021/07/05 00:47:32;;;;;;;9.68;8.55;;;;;;;;;;5054382;28;20035;-72
2021/07/05 00:49:58;;;;;;;8.95;8.10;;;;;;;;;;5054511;28;20032;-72
2021/07/05 00:52:25;;;;;;;8.63;7.80;;;;;;;;;;5054236;28;20049;-71
2021/07/05 00:54:51;;;;;;;7.82;7.13;;;;;;;;;;5054406;28;20049;-71
2021/07/05 00:57:20;;;;;;;8.30;7.57;;;;;;;;;;5054212;28;20040;-71
2021/07/05 00:59:49;;;;;;;11.88;7.72;;;;;;;;;;5054251;28;20023;-72
2021/07/05 01:02:16;;;;;;;7.78;7.03;;;;;;;;;;5054457;28;20526;-72
2021/07/05 01:04:42;;;;;;;12.18;7.88;;;;;;;;;;5054185;28;20458;-72
2021/07/05 01:07:08;;;;;;;7.65;6.88;;;;;;;;;;5054067;28;20386;-71
2021/07/05 01:09:34;;;;;;;7.65;7.05;;;;;;;;;;5054270;28;20031;-72
2021/07/05 01:12:00;;;;;;;8.82;7.93;;;;;;;;;;5053998;28;20025;-72
2021/07/05 01:14:26;;;;;;;8.55;7.85;;;;;;;;;;5053907;28;20398;-72
2021/07/05 01:16:52;;;;;;;8.95;7.60;;;;;;;;;;5054173;28;20518;-72
2021/07/05 01:19:18;;;;;;;9.20;8.30;;;;;;;;;;5053630;28;20071;-72
2021/07/05 01:21:44;;;;;;;7.90;7.30;;;;;;;;;;5054276;28;20017;-72
2021/07/05 01:24:10;;;;;;;9.65;8.65;;;;;;;;;;5053744;28;20025;-72
2021/07/05 01:26:36;;;;;;;8.13;7.30;;;;;;;;;;5053899;28;20021;-72
2021/07/05 01:29:03;;;;;;;9.38;7.95;;;;;;;;;;5053430;28;20118;-72
2021/07/05 01:31:29;;;;;;;12.77;7.50;;;;;;;;;;5053225;28;20021;-72
2021/07/05 01:33:55;;;;;;;8.48;7.70;;;;;;;;;;5053784;28;20028;-71
2021/07/05 01:36:21;;;;;;;8.45;7.75;;;;;;;;;;5053731;28;20043;-71
2021/07/05 01:38:51;;;;;;;10.30;7.97;;;;;;;;;;5053366;28;20032;-71
2021/07/05 01:41:18;;;;;;;8.20;7.40;;;;;;;;;;5053947;28;20106;-72
2021/07/05 01:43:44;;;;;;;10.05;8.20;;;;;;;;;;5053564;28;20451;-72
2021/07/05 01:46:10;;;;;;;8.82;7.93;;;;;;;;;;5053466;28;20081;-72
2021/07/05 01:48:36;;;;;;;8.48;7.78;;;;;;;;;;5053577;28;20360;-72
2021/07/05 01:51:02;;;;;;;8.43;7.63;;;;;;;;;;5053438;28;20076;-72
2021/07/05 01:53:28;;;;;;;8.07;7.35;;;;;;;;;;5053443;28;20029;-72
2021/07/05 01:55:54;;;;;;;8.35;7.65;;;;;;;;;;5053162;28;20028;-72
2021/07/05 01:58:20;;;;;;;8.57;7.80;;;;;;;;;;5052959;28;20025;-72
2021/07/05 02:00:47;;;;;;;9.00;7.82;;;;;;;;;;5053435;28;20021;-71
2021/07/05 02:03:13;;;;;;;8.80;8.02;;;;;;;;;;5053239;28;20025;-72
2021/07/05 02:05:40;;;;;;;8.10;7.40;;;;;;;;;;5053263;28;20026;-72
2021/07/05 02:08:06;;;;;;;8.23;7.13;;;;;;;;;;5052977;28;20021;-72
2021/07/05 02:10:33;;;;;;;9.80;7.40;;;;;;;;;;5053338;28;20379;-72
2021/07/05 02:13:02;;;;;;;9.25;7.45;;;;;;;;;;5053251;28;20021;-72
2021/07/05 02:15:28;;;;;;;8.05;7.35;;;;;;;;;;5053108;28;20477;-71
2021/07/05 02:17:54;;;;;;;18.20;9.32;;;;;;;;;;5053201;28;20063;-72
2021/07/05 02:20:21;;;;;;;7.32;6.63;;;;;;;;;;5053223;28;20025;-71
2021/07/05 02:22:50;;;;;;;8.05;7.35;;;;;;;;;;5053361;28;20021;-71
2021/07/05 02:25:16;;;;;;;7.63;6.97;;;;;;;;;;5053042;28;20028;-72
2021/07/05 02:27:42;;;;;;;8.52;7.72;;;;;;;;;;5052652;28;20478;-72
2021/07/05 02:30:10;;;;;;;8.10;7.43;;;;;;;;;;5053106;28;20060;-72
2021/07/05 02:32:37;;;;;;;9.57;7.15;;;;;;;;;;5053434;28;20486;-72
2021/07/05 02:35:04;;;;;;;11.82;8.27;;;;;;;;;;5053093;28;20033;-72
2021/07/05 02:37:30;;;;;;;7.88;7.25;;;;;;;;;;5052599;28;20120;-72
2021/07/05 02:39:56;;;;;;;9.10;8.00;;;;;;;;;;5052847;28;20075;-73
2021/07/05 02:42:22;;;;;;;9.75;7.60;;;;;;;;;;5052920;28;20418;-72
2021/07/05 02:44:48;;;;;;;8.52;7.35;;;;;;;;;;5053004;28;20025;-72
2021/07/05 02:47:14;;;;;;;7.35;6.65;;;;;;;;;;5052625;28;20029;-72
2021/07/05 02:49:40;;;;;;;7.95;7.28;;;;;;;;;;5053290;28;20029;-72
2021/07/05 02:52:07;;;;;;;10.38;7.50;;;;;;;;;;5052719;28;20044;-72
2021/07/05 02:54:33;;;;;;;7.53;6.80;;;;;;;;;;5052929;28;20108;-71
2021/07/05 02:56:59;;;;;;;8.38;7.57;;;;;;;;;;5052290;28;20068;-72
2021/07/05 02:59:25;;;;;;;9.23;8.02;;;;;;;;;;5052687;28;20032;-72
2021/07/05 03:01:51;;;;;;;8.52;7.82;;;;;;;;;;5053317;28;20066;-71
2021/07/05 03:04:17;;;;;;;8.15;7.35;;;;;;;;;;5053005;28;20025;-72
2021/07/05 03:06:43;;;;;;;9.70;8.73;;;;;;;;;;5053421;28;20025;-71
2021/07/05 03:09:09;;;;;;;8.00;7.30;;;;;;;;;;5056461;28;20159;-72
2021/07/05 03:11:35;;;;;;;8.75;7.88;;;;;;;;;;5056136;28;20371;-72
2021/07/05 03:14:01;;;;;;;8.07;7.25;;;;;;;;;;5056817;28;20090;-72
2021/07/05 03:16:27;;;;;;;7.40;6.70;;;;;;;;;;5056271;28;20028;-72
2021/07/05 03:18:53;;;;;;;9.10;7.10;;;;;;;;;;5055983;28;20033;-72
2021/07/05 03:21:19;;;;;;;7.55;6.95;;;;;;;;;;5056062;28;20029;-72
2021/07/05 03:23:45;;;;;;;7.65;7.00;;;;;;;;;;5056041;28;20039;-72
2021/07/05 03:26:11;;;;;;;8.45;7.68;;;;;;;;;;5055677;28;20033;-72
2021/07/05 03:28:37;;;;;;;8.23;6.93;;;;;;;;;;5055952;28;20025;-72
2021/07/05 03:31:04;;;;;;;8.57;7.80;;;;;;;;;;5055886;28;20474;-71
2021/07/05 03:33:30;;;;;;;7.75;6.85;;;;;;;;;;5055774;28;20490;-71
2021/07/05 03:35:56;;;;;;;7.93;7.13;;;;;;;;;;5056102;28;20021;-71
2021/07/05 03:38:22;;;;;;;8.57;7.90;;;;;;;;;;5055862;28;20033;-72
2021/07/05 03:40:48;;;;;;;7.65;7.00;;;;;;;;;;5055597;28;20455;-72
2021/07/05 03:43:15;;;;;;;8.60;7.72;;;;;;;;;;5055368;28;20383;-72
2021/07/05 03:45:41;;;;;;;8.43;7.63;;;;;;;;;;5055731;28;20040;-71
2021/07/05 03:48:07;;;;;;;9.57;7.70;;;;;;;;;;5055885;28;20021;-72
2021/07/05 03:50:33;;;;;;;8.15;7.45;;;;;;;;;;5055590;28;20374;-71
2021/07/05 03:52:59;;;;;;;7.75;7.05;;;;;;;;;;5055261;28;20056;-72
2021/07/05 03:55:26;;;;;;;8.07;7.25;;;;;;;;;;5054902;28;20064;-72
2021/07/05 03:57:52;;;;;;;11.38;7.50;;;;;;;;;;5055272;28;20029;-72
2021/07/05 04:00:20;;;;;;;8.73;7.78;;;;;;;;;;5055289;28;20028;-73
2021/07/05 04:02:46;;;;;;;9.63;8.18;;;;;;;;;;5055411;28;20024;-72
2021/07/05 04:05:12;;;;;;;10.00;8.07;;;;;;;;;;5054979;28;20112;-73
2021/07/05 04:07:40;;;;;;;7.63;7.03;;;;;;;;;;5055145;28;20033;-73
2021/07/05 04:10:06;;;;;;;10.68;8.48;;;;;;;;;;5054844;28;20025;-72
2021/07/05 04:12:33;;;;;;;8.85;7.45;;;;;;;;;;5055156;28;20072;-72
2021/07/05 04:14:59;;;;;;;7.68;7.00;;;;;;;;;;5055410;28;20021;-71
2021/07/05 04:17:26;;;;;;;9.05;8.15;;;;;;;;;;5054616;28;20028;-72
2021/07/05 04:19:52;;;;;;;7.65;6.93;;;;;;;;;;5054857;28;20486;-72
2021/07/05 04:22:18;;;;;;;8.40;7.28;;;;;;;;;;5055482;28;20054;-71
2021/07/05 04:24:44;;;;;;;9.02;7.85;;;;;;;;;;5054915;28;20367;-72
2021/07/05 04:27:11;;;;;;;7.57;6.88;;;;;;;;;;5054844;28;20061;-72
2021/07/05 04:29:37;;;;;;;8.18;7.38;;;;;;;;;;5055391;28;20021;-71
2021/07/05 04:32:04;;;;;;;13.57;6.93;;;;;;;;;;5055015;28;20036;-72
2021/07/05 04:34:30;;;;;;;8.27;7.47;;;;;;;;;;5058542;28;20024;-75
2021/07/05 04:36:56;;;;;;;8.55;7.75;;;;;;;;;;5067083;28;20111;-72
2021/07/05 04:39:22;;;;;;;8.75;7.90;;;;;;;;;;5073895;28;20029;-71
2021/07/05 04:41:48;;;;;;;7.38;6.75;;;;;;;;;;5074510;28;20025;-73
2021/07/05 04:44:14;;;;;;;7.78;7.18;;;;;;;;;;5074604;28;20033;-72
2021/07/05 04:46:46;;;;;;;8.10;7.32;;;;;;;;;;5065367;28;20025;-71
2021/07/05 04:49:13;;;;;;;8.77;7.97;;;;;;;;;;5053934;28;20475;-72
2021/07/05 04:51:39;;;;;;;14.93;7.50;;;;;;;;;;5054358;28;20049;-73
2021/07/05 04:54:05;;;;;;;8.02;7.28;;;;;;;;;;5053884;28;20508;-72
2021/07/05 04:56:32;;;;;;;8.25;7.50;;;;;;;;;;5059042;28;20029;-72
2021/07/05 04:58:58;;;;;;;7.72;6.93;;;;;;;;;;5074289;28;20044;-71
2021/07/05 05:01:24;;;;;;;8.18;7.32;;;;;;;;;;5073438;28;20115;-74
2021/07/05 05:03:50;;;;;;;13.63;7.07;;;;;;;;;;5072488;28;20446;-71
2021/07/05 05:06:16;;;;;;;8.30;7.50;;;;;;;;;;5073640;28;20504;-71
2021/07/05 05:08:42;;;;;;;7.82;7.15;;;;;;;;;;5073588;28;20489;-71
2021/07/05 05:11:08;;;;;;;7.68;7.07;;;;;;;;;;5071433;28;20323;-72
2021/07/05 05:13:34;;;;;;;7.30;6.57;;;;;;;;;;5053810;28;20029;-73
2021/07/05 05:16:00;;;;;;;7.65;6.95;;;;;;;;;;5054168;28;20025;-74
2021/07/05 05:18:27;;;;;;;7.63;6.63;;;;;;;;;;5054264;28;20051;-73
2021/07/05 05:20:55;;;;;;;8.23;7.45;;;;;;;;;;5053561;28;20079;-73
2021/07/05 05:23:21;;;;;;;8.00;7.28;;;;;;;;;;5052806;28;20394;-72
2021/07/05 05:25:47;;;;;;;9.23;7.80;;;;;;;;;;5053750;28;20061;-72
2021/07/05 05:28:13;;;;;;;7.60;6.88;;;;;;;;;;5054126;28;20071;-73
2021/07/05 05:30:39;;;;;;;8.85;7.97;;;;;;;;;;5053213;28;20107;-72
2021/07/05 05:33:05;;;;;;;10.73;6.70;;;;;;;;;;5052958;28;20049;-73
2021/07/05 05:35:31;;;;;;;7.80;7.10;;;;;;;;;;5053868;28;20040;-72
2021/07/05 05:37:57;;;;;;;9.63;8.07;;;;;;;;;;5053336;28;20025;-72
2021/07/05 05:40:24;;;;;;;10.15;7.10;;;;;;;;;;5053908;28;20072;-71
2021/07/05 05:42:50;;;;;;;8.38;7.78;;;;;;;;;;5053159;28;20025;-71
2021/07/05 05:45:16;;;;;;;7.97;6.55;;;;;;;;;;5053795;28;20479;-71
2021/07/05 05:47:42;;;;;;;7.47;6.88;;;;;;;;;;5053262;28;20123;-71
2021/07/05 05:50:08;;;;;;;11.32;7.28;;;;;;;;;;5053301;28;20471;-69
2021/07/05 05:52:34;;;;;;;8.60;7.45;;;;;;;;;;5065405;28;20501;-70
2021/07/05 05:55:00;;;;;;;7.60;6.90;;;;;;;;;;5073437;28;20103;-71
2021/07/05 05:57:29;;;;;;;12.02;6.82;;;;;;;;;;5072817;28;20142;-70
2021/07/05 05:59:58;;;;;;;8.60;7.75;;;;;;;;;;5073339;28;20021;-71
2021/07/05 06:02:25;;;;;;;8.73;6.70;;;;;;;;;;5062700;28;20016;-72
2021/07/05 06:04:51;;;;;;;7.95;7.35;;;;;;;;;;5071870;28;20025;-70
2021/07/05 06:07:17;;;;;;;8.68;7.07;;;;;;;;;;5072789;28;20035;-70
2021/07/05 06:09:43;;;;;;;7.85;6.82;;;;;;;;;;5073913;28;20025;-70
2021/07/05 06:12:09;;;;;;;8.80;7.90;;;;;;;;;;5073133;28;20078;-70
2021/07/05 06:14:35;;;;;;;7.93;7.32;;;;;;;;;;5073517;28;20099;-71
2021/07/05 06:17:01;;;;;;;10.02;7.60;;;;;;;;;;5072855;28;20040;-69
2021/07/05 06:19:27;;;;;;;7.72;7.13;;;;;;;;;;5073161;28;20060;-71
2021/07/05 06:21:54;;;;;;;7.68;6.88;;;;;;;;;;5073198;28;20048;-70
2021/07/05 06:24:20;;;;;;;8.60;7.80;;;;;;;;;;5073264;28;20029;-70
2021/07/05 06:26:47;;;;;;;7.57;6.88;;;;;;;;;;5073190;28;20033;-70
2021/07/05 06:29:13;;;;;;;9.88;7.45;;;;;;;;;;5072824;28;20040;-71
2021/07/05 06:31:39;;;;;;;7.60;6.95;;;;;;;;;;5072974;28;20543;-70
2021/07/05 06:34:05;;;;;;;14.02;8.05;;;;;;;;;;5073299;28;20032;-71
2021/07/05 06:36:31;;;;;;;9.18;8.25;;;;;;;;;;5073066;28;20393;-70
2021/07/05 06:38:57;;;;;;;13.18;7.72;;;;;;;;;;5073058;28;20465;-69
2021/07/05 06:41:25;;;;;;;8.48;7.78;;;;;;;;;;5072932;28;20020;-70
2021/07/05 06:43:52;;;;;;;8.60;7.72;;;;;;;;;;5077084;28;20017;-70
2021/07/05 06:46:18;;;;;;;7.93;7.22;;;;;;;;;;5077140;28;20378;-70
2021/07/05 06:48:44;;;;;;;9.35;8.55;;;;;;;;;;5076445;28;20017;-71
2021/07/05 06:51:10;;;;;;;8.90;8.00;;;;;;;;;;5076158;28;20053;-71
2021/07/05 06:53:36;;;;;;;10.82;9.75;;;;;;;;;;5076913;28;20020;-70
2021/07/05 06:56:03;;;;;;;10.02;9.13;;;;;;;;;;5076915;28;20024;-70
2021/07/05 06:58:29;;;;;;;11.55;9.15;;;;;;;;;;5076976;28;20033;-70
2021/07/05 07:00:55;;;;;;;10.23;9.32;;;;;;;;;;5076800;28;20020;-73
2021/07/05 07:03:22;;;;;;;9.43;8.43;;;;;;;;;;5076398;28;20032;-70
2021/07/05 07:05:48;;;;;;;9.35;8.55;;;;;;;;;;5076606;28;20020;-70
2021/07/05 07:08:14;;;;;;;10.73;9.73;;;;;;;;;;5076640;28;20024;-71
2021/07/05 07:10:41;;;;;;;9.60;8.68;;;;;;;;;;5076022;28;20029;-72
2021/07/05 07:13:07;;;;;;;9.57;8.82;;;;;;;;;;5076662;28;20023;-72
2021/07/05 07:15:36;;;;;;;14.15;8.75;;;;;;;;;;5076241;28;20033;-72
2021/07/05 07:18:07;;;;;;;8.80;8.00;;;;;;;;;;5075957;28;20091;-71
2021/07/05 07:20:34;;;;;;;11.80;8.02;;;;;;;;;;5076720;28;20029;-70
2021/07/05 07:23:00;;;;;;;11.82;7.68;;;;;;;;;;5076523;28;20067;-70
2021/07/05 07:25:26;;;;;;;9.48;8.57;;;;;;;;;;5075901;28;20027;-70
2021/07/05 07:27:52;;;;;;;10.38;8.25;;;;;;;;;;5076064;28;20032;-70
2021/07/05 07:30:19;;;;;;;10.70;8.07;;;;;;;;;;5075989;28;20055;-69
2021/07/05 07:32:45;;;;;;;8.65;7.75;;;;;;;;;;5076018;28;20111;-71
2021/07/05 07:35:11;;;;;;;8.45;7.72;;;;;;;;;;5076132;28;20070;-70
2021/07/05 07:37:39;;;;;;;7.30;6.70;;;;;;;;;;5076701;28;20544;-70
2021/07/05 07:40:15;;;;;;;9.45;7.38;;;;;;;;;;5076030;28;20043;-69
2021/07/05 07:42:41;;;;;;;14.75;8.13;;;;;;;;;;5076116;28;20017;-69
2021/07/05 07:45:07;;;;;;;9.75;8.45;;;;;;;;;;5075332;28;20050;-71
2021/07/05 07:47:33;;;;;;;11.40;7.72;;;;;;;;;;5075152;28;20047;-70
2021/07/05 07:49:59;;;;;;;9.02;8.30;;;;;;;;;;5076062;28;20482;-70
2021/07/05 07:52:27;;;;;;;8.05;7.40;;;;;;;;;;5074952;28;20533;-69
2021/07/05 07:54:53;;;;;;;9.75;7.07;;;;;;;;;;5075547;28;20021;-69
2021/07/05 07:57:19;;;;;;;12.63;8.05;;;;;;;;;;5075623;28;20033;-70
2021/07/05 07:59:45;;;;;;;8.85;7.40;;;;;;;;;;5075756;28;20021;-71
2021/07/05 08:02:11;;;;;;;9.50;6.22;;;;;;;;;;5075258;28;20516;-70
2021/07/05 08:04:39;;;;;;;10.20;7.20;;;;;;;;;;5075587;28;20052;-70
2021/07/05 08:07:05;;;;;;;7.90;7.10;;;;;;;;;;5075793;28;20029;-70
2021/07/05 08:09:31;;;;;;;10.88;7.28;;;;;;;;;;5075313;28;20039;-70
2021/07/05 08:11:57;;;;;;;7.43;6.82;;;;;;;;;;5075288;28;20501;-71
2021/07/05 08:14:23;;;;;;;8.68;7.93;;;;;;;;;;5075542;28;20037;-70
2021/07/05 08:16:49;;;;;;;7.28;6.60;;;;;;;;;;5075167;28;20025;-71
2021/07/05 08:19:15;;;;;;;8.07;7.38;;;;;;;;;;5075245;28;20454;-71
2021/07/05 08:21:41;;;;;;;10.43;8.52;;;;;;;;;;5075599;28;20429;-70
2021/07/05 08:24:07;;;;;;;7.55;6.95;;;;;;;;;;5075574;28;20070;-70
2021/07/05 08:26:33;;;;;;;11.75;7.45;;;;;;;;;;5074978;28;20489;-71
2021/07/05 08:28:59;;;;;;;9.65;7.65;;;;;;;;;;5075133;28;20035;-71
2021/07/05 08:31:25;;;;;;;8.23;7.45;;;;;;;;;;5074223;28;20024;-70
2021/07/05 08:33:52;;;;;;;11.80;7.38;;;;;;;;;;5073152;28;20032;-72
2021/07/05 08:36:20;;;;;;;9.65;7.68;;;;;;;;;;5074574;28;20082;-71
2021/07/05 08:38:46;;;;;;;7.40;6.80;;;;;;;;;;5074668;28;20125;-70
2021/07/05 08:41:12;;;;;;;7.53;6.78;;;;;;;;;;5074379;28;20020;-70
2021/07/05 08:43:41;;;;;;;7.22;6.55;;;;;;;;;;5074826;28;20108;-71
2021/07/05 08:46:07;;;;;;;7.78;5.95;;;;;;;;;;5067449;28;20032;-71
2021/07/05 08:48:34;;;;;;;8.73;6.57;;;;;;;;;;5074693;28;20048;-72
2021/07/05 08:51:02;;;;;;;6.55;5.97;;;;;;;;;;5074362;28;20028;-72
2021/07/05 08:53:28;;;;;;;6.53;6.03;;;;;;;;;;5073860;28;20389;-73
2021/07/05 08:55:54;;;;;;;6.93;6.40;;;;;;;;;;5069465;28;20060;-71
2021/07/05 08:58:20;;;;;;;8.35;6.07;;;;;;;;;;5054477;28;20437;-71
2021/07/05 09:00:46;;;;;;;7.78;7.03;;;;;;;;;;5054005;28;20064;-71
2021/07/05 09:03:14;;;;;;;6.50;6.00;;;;;;;;;;5054090;28;20056;-71
2021/07/05 09:05:40;;;;;;;6.82;6.22;;;;;;;;;;5052796;28;20107;-72
2021/07/05 09:08:07;;;;;;;7.63;6.57;;;;;;;;;;5054091;28;20028;-71
2021/07/05 09:10:49;;;;;;;6.80;6.18;;;;;;;;;;5053675;28;20025;-70
2021/07/05 09:13:19;;;;;;;7.35;5.53;;;;;;;;;;5052871;28;20039;-73
2021/07/05 09:15:48;;;;;;;7.38;6.03;;;;;;;;;;5070705;28;20021;-71
2021/07/05 09:18:34;;;;;;;12.13;7.18;;;;;;;;;;5053679;28;20382;-70
2021/07/05 09:21:20;;;;;;;17.33;8.15;;;;;;;;;;5039347;28;20059;-71
2021/07/05 09:24:03;;;;;;;13.25;8.00;;;;;;;;;;5058882;28;20393;-71
2021/07/05 09:26:30;;;;;;;10.68;7.22;;;;;;;;;;5065056;28;20375;-71
2021/07/05 09:28:56;;;;;;;8.82;7.05;;;;;;;;;;5053532;28;20025;-71
2021/07/05 09:31:30;;;;;;;8.98;7.05;;;;;;;;;;5053688;28;20371;-71
2021/07/05 09:33:56;;;;;;;9.07;7.45;;;;;;;;;;5054184;28;20086;-71
2021/07/05 09:36:24;;;;;;;16.27;7.93;;;;;;;;;;5053391;28;20044;-71
2021/07/05 09:38:50;;;;;;;7.63;6.97;;;;;;;;;;5068959;28;20404;-71
2021/07/05 09:41:18;;;;;;;8.80;7.25;;;;;;;;;;5073141;28;20492;-71
2021/07/05 09:43:44;;;;;;;8.75;7.07;;;;;;;;;;5073380;28;20401;-70
2021/07/05 09:46:11;;;;;;;8.07;7.22;;;;;;;;;;5054973;28;20029;-70
2021/07/05 09:48:43;;;;;;;8.27;7.47;;;;;;;;;;5053088;28;20029;-71
2021/07/05 09:51:09;;;;;;;7.10;6.50;;;;;;;;;;5052035;28;20052;-71
2021/07/05 09:53:36;;;;;;;10.07;6.63;;;;;;;;;;5053251;28;20108;-71
2021/07/05 09:56:22;;;;;;;7.15;6.55;;;;;;;;;;5053487;28;20056;-71
2021/07/05 09:58:49;;;;;;;14.40;7.15;;;;;;;;;;5037836;28;20037;-71
2021/07/05 10:01:35;;;;;;;7.85;7.22;;;;;;;;;;5052541;28;20025;-72
2021/07/05 10:04:06;;;;;;;33.28;25.38;;;;;;;;;;5038409;28;20221;-71
2021/07/05 10:06:38;;;;;;;34.47;30.77;;;;;;;;;;5053238;28;20116;-71
2021/07/05 10:09:04;;;;;;;32.28;28.85;;;;;;;;;;5052948;28;20090;-72
2021/07/05 10:11:30;;;;;;;23.20;20.95;;;;;;;;;;5052703;28;20036;-72
2021/07/05 10:14:16;;;;;;;18.67;16.85;;;;;;;;;;5052856;28;20035;-71
2021/07/05 10:16:43;;;;;;;23.42;15.85;;;;;;;;;;5041561;28;20017;-71
2021/07/05 10:19:09;;;;;;;15.98;14.40;;;;;;;;;;5057344;28;20037;-71
2021/07/05 10:21:36;;;;;;;19.35;13.05;;;;;;;;;;5056915;28;20467;-71
2021/07/05 10:24:03;;;;;;;18.25;12.35;;;;;;;;;;5056904;28;20070;-72
2021/07/05 10:26:29;;;;;;;21.65;13.60;;;;;;;;;;5057413;28;20045;-71
2021/07/05 10:28:55;;;;;;;24.30;12.30;;;;;;;;;;5056685;28;20025;-71
2021/07/05 10:31:21;;;;;;;22.73;11.73;;;;;;;;;;5056675;28;20027;-71
2021/07/05 10:33:47;;;;;;;13.32;11.18;;;;;;;;;;5056853;28;20051;-71
2021/07/05 10:36:13;;;;;;;14.77;10.98;;;;;;;;;;5056152;28;20033;-72
2021/07/05 10:38:41;;;;;;;14.38;11.30;;;;;;;;;;5056528;28;20029;-73
2021/07/05 10:41:09;;;;;;;17.02;10.18;;;;;;;;;;5056332;28;20432;-71
2021/07/05 10:43:53;;;;;;;12.93;10.30;;;;;;;;;;5056595;28;20021;-71
2021/07/05 10:46:39;;;;;;;12.23;9.00;;;;;;;;;;5056364;28;20021;-71
2021/07/05 10:49:05;;;;;;;13.57;8.82;;;;;;;;;;5041421;28;20086;-72
2021/07/05 10:51:47;;;;;;;9.63;8.63;;;;;;;;;;5055664;28;20049;-72
2021/07/05 10:54:13;;;;;;;;;;;;;;;;;;5057179;28;20471;-72
2021/07/05 10:56:42;;;;;;;11.82;8.90;;;;;;;;;;5056234;28;19959;-72
2021/07/05 10:59:28;;;;;;;12.05;9.23;;;;;;;;;;5056212;28;20471;-72
2021/07/05 11:01:54;;;;;;;20.95;9.02;;;;;;;;;;5041407;28;20021;-72
2021/07/05 11:04:22;;;;;;;7.90;7.20;;;;;;;;;;5056243;28;20441;-73
2021/07/05 11:06:49;;;;;;;8.43;7.63;;;;;;;;;;5056617;28;20032;-73
2021/07/05 11:09:16;;;;;;;8.60;7.55;;;;;;;;;;5055763;28;20108;-72
2021/07/05 11:11:46;;;;;;;9.07;6.82;;;;;;;;;;5056645;28;20079;-75
2021/07/05 11:14:16;;;;;;;12.10;7.95;;;;;;;;;;5055842;28;20087;-72
2021/07/05 11:17:03;;;;;;;7.82;7.13;;;;;;;;;;5055940;28;20032;-73
2021/07/05 11:19:31;;;;;;;8.52;6.57;;;;;;;;;;5041208;28;20025;-72
2021/07/05 11:21:58;;;;;;;12.40;7.68;;;;;;;;;;5055868;28;20025;-73
2021/07/05 11:24:31;;;;;;;12.82;7.68;;;;;;;;;;5055816;28;20036;-72
2021/07/05 11:26:57;;;;;;;7.60;6.85;;;;;;;;;;5054608;28;20390;-72
2021/07/05 11:29:24;;;;;;;9.18;6.82;;;;;;;;;;5055050;28;20025;-73
2021/07/05 11:31:52;;;;;;;8.32;6.85;;;;;;;;;;5056375;28;20366;-73
2021/07/05 11:34:35;;;;;;;7.05;6.38;;;;;;;;;;5055853;28;20032;-73
2021/07/05 11:37:21;;;;;;;6.68;6.07;;;;;;;;;;5055445;28;20017;-73
2021/07/05 11:39:48;;;;;;;7.47;6.65;;;;;;;;;;5041056;28;20029;-72
2021/07/05 11:42:19;;;;;;;13.60;6.63;;;;;;;;;;5055753;28;20375;-72
2021/07/05 11:44:47;;;;;;;6.63;6.00;;;;;;;;;;5055992;28;20463;-72
2021/07/05 11:47:33;;;;;;;7.05;6.45;;;;;;;;;;5055619;28;20048;-71
2021/07/05 11:50:21;;;;;;;6.82;6.22;;;;;;;;;;5039618;28;20017;-71
2021/07/05 11:52:49;;;;;;;14.25;6.97;;;;;;;;;;5040716;28;20491;-72
2021/07/05 11:55:15;;;;;;;14.82;7.45;;;;;;;;;;5054642;28;20022;-72
2021/07/05 11:57:57;;;;;;;10.65;6.40;;;;;;;;;;5056659;28;20067;-73
2021/07/05 12:00:23;;;;;;;;;;;;;;;;;;5061985;28;20059;-73
2021/07/05 12:03:05;;;;;;;7.43;6.72;;;;;;;;;;5062491;28;19905;-73
2021/07/05 12:05:31;;;;;;;;;;;;;;;;;;5055422;28;20036;-73
2021/07/05 12:08:05;;;;;;;8.20;6.85;;;;;;;;;;5052577;28;19904;-73
2021/07/05 12:10:31;;;;;;;9.55;6.20;;;;;;;;;;5054643;28;20033;-70
2021/07/05 12:13:13;;;;;;;10.20;6.43;;;;;;;;;;5055268;28;20032;-73
2021/07/05 12:15:39;;;;;;;7.10;6.50;;;;;;;;;;5055206;28;20481;-72
2021/07/05 12:18:05;;;;;;;9.55;7.20;;;;;;;;;;5055833;28;20044;-72
2021/07/05 12:20:32;;;;;;;7.28;5.82;;;;;;;;;;5054850;28;20498;-70
2021/07/05 12:23:06;;;;;;;10.32;6.55;;;;;;;;;;5055020;28;20505;-71
2021/07/05 12:25:32;;;;;;;11.57;7.60;;;;;;;;;;5053849;28;20025;-71
2021/07/05 12:28:07;;;;;;;10.85;5.75;;;;;;;;;;5054334;28;20418;-72
2021/07/05 12:30:33;;;;;;;7.63;6.63;;;;;;;;;;5054157;28;20108;-71
2021/07/05 12:32:59;;;;;;;13.38;5.88;;;;;;;;;;5054872;28;20056;-71
2021/07/05 12:35:25;;;;;;;7.00;6.32;;;;;;;;;;5054277;28;20036;-71
2021/07/05 12:37:53;;;;;;;7.47;6.28;;;;;;;;;;5054945;28;20060;-71
2021/07/05 12:40:21;;;;;;;8.35;6.60;;;;;;;;;;5054037;28;20471;-70
2021/07/05 12:42:51;;;;;;;6.22;5.72;;;;;;;;;;5054124;28;20387;-70
2021/07/05 12:45:34;;;;;;;334.02;77.68;;;;;;;;;;5054041;28;20095;-71
2021/07/05 12:48:11;;;;;;;364.90;90.03;;;;;;;;;;5054107;28;20082;-71
2021/07/05 12:50:42;;;;;;;307.40;79.00;;;;;;;;;;5054106;28;20025;-72
2021/07/05 12:53:25;;;;;;;286.42;76.38;;;;;;;;;;5054060;28;20398;-71
2021/07/05 12:56:08;;;;;;;290.88;75.65;;;;;;;;;;5054635;28;20024;-70
2021/07/05 12:58:42;;;;;;;274.98;74.38;;;;;;;;;;5053719;28;20028;-71
2021/07/05 13:01:12;;;;;;;252.70;69.22;;;;;;;;;;5054010;28;20108;-71
2021/07/05 13:03:39;;;;;;;235.10;62.28;;;;;;;;;;5053499;28;20033;-71
2021/07/05 13:06:07;;;;;;;215.35;64.32;;;;;;;;;;5054124;28;20025;-71
2021/07/05 13:08:33;;;;;;;199.00;59.25;;;;;;;;;;5053881;28;20024;-71
2021/07/05 13:11:07;;;;;;;178.73;53.83;;;;;;;;;;5053761;28;20029;-70
2021/07/05 13:13:37;;;;;;;179.18;55.97;;;;;;;;;;5053484;28;20033;-71
2021/07/05 13:16:03;;;;;;;178.50;51.55;;;;;;;;;;5053538;28;20116;-71
2021/07/05 13:18:29;;;;;;;158.85;46.72;;;;;;;;;;5053399;28;20040;-71
2021/07/05 13:20:55;;;;;;;141.93;45.50;;;;;;;;;;5054260;28;20068;-71
2021/07/05 13:23:40;;;;;;;159.30;43.42;;;;;;;;;;5053448;28;20486;-70
2021/07/05 13:26:07;;;;;;;152.85;45.38;;;;;;;;;;5053654;28;20032;-72
2021/07/05 13:28:33;;;;;;;136.98;42.15;;;;;;;;;;5052792;28;20478;-70
2021/07/05 13:30:59;;;;;;;126.03;42.28;;;;;;;;;;5053398;28;20120;-72
2021/07/05 13:33:33;;;;;;;120.28;39.03;;;;;;;;;;5052514;28;20018;-71
2021/07/05 13:35:59;;;;;;;106.22;36.65;;;;;;;;;;5053328;28;20064;-71
2021/07/05 13:38:28;;;;;;;101.50;37.92;;;;;;;;;;5052772;28;20029;-72
2021/07/05 13:40:55;;;;;;;90.43;30.73;;;;;;;;;;5053304;28;20024;-72
2021/07/05 13:43:22;;;;;;;96.60;34.83;;;;;;;;;;5053339;28;20126;-72
2021/07/05 13:45:49;;;;;;;90.10;32.55;;;;;;;;;;5053716;28;20474;-73
2021/07/05 13:48:15;;;;;;;105.85;34.22;;;;;;;;;;5053168;28;20383;-72
2021/07/05 13:50:56;;;;;;;86.00;33.78;;;;;;;;;;5052548;28;20104;-72
2021/07/05 13:53:24;;;;;;;89.72;30.25;;;;;;;;;;5052772;28;20040;-72
2021/07/05 13:55:52;;;;;;;84.43;30.20;;;;;;;;;;5053305;28;20021;-72
2021/07/05 13:58:20;;;;;;;82.53;30.70;;;;;;;;;;5052380;28;20033;-71
2021/07/05 14:00:47;;;;;;;78.20;29.65;;;;;;;;;;5052988;28;20036;-71
2021/07/05 14:03:14;;;;;;;66.22;27.42;;;;;;;;;;5052788;28;20116;-72
2021/07/05 14:05:40;;;;;;;55.67;19.98;;;;;;;;;;5053205;28;20064;-71
2021/07/05 14:08:07;;;;;;;61.10;23.67;;;;;;;;;;5052400;28;20036;-72
2021/07/05 14:10:34;;;;;;;47.25;21.23;;;;;;;;;;5053508;28;20033;-72
2021/07/05 14:13:01;;;;;;;45.95;19.25;;;;;;;;;;5052427;28;20386;-72
2021/07/05 14:15:27;;;;;;;26.08;15.63;;;;;;;;;;5052639;28;20052;-71
2021/07/05 14:17:53;;;;;;;28.73;13.65;;;;;;;;;;5052692;28;20057;-72
2021/07/05 14:20:19;;;;;;;28.45;13.68;;;;;;;;;;5053075;28;20479;-72
2021/07/05 14:22:45;;;;;;;24.45;12.18;;;;;;;;;;5052696;28;20040;-72
2021/07/05 14:25:12;;;;;;;24.00;10.88;;;;;;;;;;5052353;28;20528;-74
2021/07/05 14:27:38;;;;;;;14.73;9.20;;;;;;;;;;5053210;28;20036;-72
2021/07/05 14:30:06;;;;;;;21.13;10.32;;;;;;;;;;5052780;28;20025;-71
2021/07/05 14:32:32;;;;;;;15.73;9.02;;;;;;;;;;5052262;28;20628;-72
2021/07/05 14:34:58;;;;;;;10.65;8.55;;;;;;;;;;5052545;28;20082;-74
2021/07/05 14:37:24;;;;;;;10.20;8.57;;;;;;;;;;5052461;28;20070;-73
2021/07/05 14:39:50;;;;;;;9.95;7.78;;;;;;;;;;5052322;28;20467;-71